Minneapolis, Minnesota
Current Conditions -  °F | °C
As of 3:53 AM on Saturday 29 Nov 2014 (Local Time) from KMSP Reporting Station
Haze Haze  
Wind Chill: 16°   Ceiling: 15000
Heat Index: 23°   Visibility: 6mi
Dew Point: 20°   Wind: 6mph
Humidity: 88%   Direction: 100°E
Pressure: 29.57"   Gusts: NA
Location:  44.98°N, 93.26°W
Report Text: KMSP 290953Z 10005KT 6SM BR OVC150 M05/M07 A2957 RMK AO2 SLP025 T10501067
Loading
Personal Weather Stations






























Interactive Weather Map New forecast layout! Learn more

10-Day Weather Forecast

Advertisements
Track Severe Weather on mobile